Current Weather

Chicago/Rockford Intl

Rockford, Illinois (KRFD)

Report from: Sunday, September 25, 2022 9:54 PM CDT
Current time: Sunday, September 25, 2022 10:55 PM CDT

Nearby weather
Weather history
Weather forecast

Temperature11.7°C (53.1°F)
Dew point8.3°C (46.9°F)
Winds Calm
Visibility10 mi. (16.1 km)
Clouds Scattered clouds 8,000 ft. (2,438 m)
Altimeter29.86 in.Hg (1011 mB)
Relative humidity80 %
Density altitude-166 ft. (-51 m)
Sea-level pressure101.1 kPa (1011 mB, 29.85 in.Hg)
Remarks Automated weather observing station with precipitation discriminator
Pressure rising, then falling
Flight conditions Visual Meteorological Conditions
Raw dataKRFD 260254Z 00000KT 10SM SCT080 12/08 A2986 RMK AO2 SLP110 T01170083 50016
An error has occurred. This application may no longer respond until reloaded. Reload 🗙